createdAt,value
2023-04-21T00:00:12.217Z,7.07
2023-04-21T00:05:34.984Z,11.05
2023-04-21T00:10:37.732Z,11.59
2023-04-21T00:15:40.784Z,9.39
2023-04-21T00:20:45.153Z,8.13
2023-04-21T00:25:47.907Z,7.31
2023-04-21T00:30:50.656Z,8.58
2023-04-21T00:35:54.619Z,11.43
2023-04-21T00:40:57.384Z,9.35
2023-04-21T00:46:00.158Z,7.80
2023-04-21T00:51:03.100Z,6.82
2023-04-21T00:56:05.924Z,8.58
2023-04-21T01:01:08.775Z,10.85
2023-04-21T01:06:11.559Z,8.59
2023-04-21T01:11:14.493Z,7.22
2023-04-21T01:16:18.254Z,8.21
2023-04-21T01:21:22.086Z,11.10
2023-04-21T01:26:24.861Z,8.98
2023-04-21T01:31:27.683Z,7.35
2023-04-21T01:36:31.566Z,6.31
2023-04-21T01:41:34.348Z,7.70
2023-04-21T01:46:37.262Z,10.97
2023-04-21T01:51:39.966Z,8.98
2023-04-21T01:56:42.748Z,7.15
2023-04-21T02:01:45.618Z,8.09
2023-04-21T02:06:48.463Z,10.89
2023-04-21T02:11:51.156Z,8.75
2023-04-21T02:16:53.912Z,7.09
2023-04-21T02:21:56.701Z,7.89
2023-04-21T02:26:59.413Z,10.51
2023-04-21T02:32:10.990Z,8.25
2023-04-21T02:37:22.210Z,6.60
2023-04-21T02:42:24.921Z,7.66
2023-04-21T02:47:27.692Z,10.47
2023-04-21T02:52:30.418Z,8.25
2023-04-21T02:57:33.171Z,6.62
2023-04-21T03:02:36.173Z,7.63
2023-04-21T03:07:39.163Z,10.34
2023-04-21T03:12:41.875Z,8.07
2023-04-21T03:17:44.629Z,6.46
2023-04-21T03:22:47.319Z,7.63
2023-04-21T03:27:50.064Z,10.23
2023-04-21T03:32:53.020Z,7.94
2023-04-21T03:37:55.820Z,6.35
2023-04-21T03:42:58.614Z,7.43
2023-04-21T03:48:01.438Z,10.13
2023-04-21T03:53:04.446Z,7.90
2023-04-21T03:58:07.906Z,6.41
2023-04-21T04:03:10.760Z,7.56
2023-04-21T04:08:13.679Z,10.21
2023-04-21T04:13:16.900Z,8.03
2023-04-21T04:18:19.653Z,6.66
2023-04-21T04:23:22.362Z,7.82
2023-04-21T04:28:25.079Z,10.63
2023-04-21T04:33:27.841Z,8.55
2023-04-21T04:38:30.556Z,7.20
2023-04-21T04:43:39.402Z,6.46
2023-04-21T04:48:42.133Z,8.29
2023-04-21T04:53:44.856Z,11.37
2023-04-21T04:58:47.587Z,9.54
2023-04-21T05:03:50.534Z,8.27
2023-04-21T05:08:53.436Z,7.70
2023-04-21T05:13:56.185Z,7.32
2023-04-21T05:19:02.020Z,9.00
2023-04-21T05:24:04.907Z,12.77
2023-04-21T05:29:07.640Z,11.54
2023-04-21T05:34:10.430Z,10.20
2023-04-21T05:39:13.144Z,9.53
2023-04-21T05:44:19.360Z,9.12
2023-04-21T05:49:22.451Z,10.90
2023-04-21T05:54:26.001Z,13.30
2023-04-21T05:59:29.045Z,11.61
2023-04-21T06:04:31.922Z,10.67
2023-04-21T06:09:36.509Z,10.27
2023-04-21T06:14:39.563Z,10.04
2023-04-21T06:19:43.434Z,11.26
2023-04-21T06:24:46.659Z,14.01
2023-04-21T06:29:54.123Z,12.66
2023-04-21T06:34:57.165Z,11.81
2023-04-21T06:40:00.001Z,11.49
2023-04-21T06:45:02.992Z,11.38
2023-04-21T06:50:06.263Z,11.38
2023-04-21T06:55:09.294Z,11.46
2023-04-21T07:00:12.813Z,11.58
2023-04-21T07:05:16.317Z,11.79
2023-04-21T07:10:19.479Z,11.97
2023-04-21T07:15:22.584Z,12.19
2023-04-21T07:20:25.659Z,12.43
2023-04-21T07:25:28.791Z,12.66
2023-04-21T07:30:31.602Z,12.88
2023-04-21T07:35:34.790Z,13.13
2023-04-21T07:40:37.493Z,13.33
2023-04-21T07:45:40.706Z,13.53
2023-04-21T07:50:43.776Z,13.76
2023-04-21T07:55:46.867Z,13.99
2023-04-21T08:00:50.051Z,14.23
2023-04-21T08:05:52.869Z,14.50
2023-04-21T08:10:55.659Z,14.73
2023-04-21T08:15:58.580Z,14.95
2023-04-21T08:21:02.451Z,15.19
2023-04-21T08:26:05.343Z,15.39
2023-04-21T08:31:09.028Z,15.55
2023-04-21T08:36:21.856Z,15.67
2023-04-21T08:41:31.722Z,15.82
2023-04-21T08:46:36.287Z,15.96
2023-04-21T08:51:40.300Z,16.12
2023-04-21T08:56:43.327Z,16.17
2023-04-21T09:02:10.074Z,16.34
2023-04-21T09:07:31.307Z,16.49
2023-04-21T09:12:34.721Z,16.63
2023-04-21T09:17:38.939Z,16.75
2023-04-21T09:22:41.894Z,16.93
2023-04-21T09:27:45.018Z,17.03
2023-04-21T09:32:47.820Z,17.09
2023-04-21T09:37:50.685Z,17.23
2023-04-21T09:42:53.510Z,17.36
2023-04-21T09:47:58.708Z,17.45
2023-04-21T09:53:06.289Z,17.47
2023-04-21T09:58:11.256Z,17.51
2023-04-21T10:03:16.092Z,17.61
2023-04-21T10:08:19.087Z,17.60
2023-04-21T10:13:22.454Z,17.71
2023-04-21T10:18:25.325Z,17.80
2023-04-21T10:23:39.585Z,17.86
2023-04-21T10:28:59.712Z,18.03
2023-04-21T10:34:08.732Z,18.14
2023-04-21T10:39:24.835Z,18.11
2023-04-21T10:44:29.262Z,18.11
2023-04-21T10:49:31.985Z,18.24
2023-04-21T10:55:04.640Z,18.22
2023-04-21T11:00:09.046Z,18.16
2023-04-21T11:05:12.446Z,18.28
2023-04-21T11:10:15.351Z,18.27
2023-04-21T11:15:18.130Z,18.27
2023-04-21T11:20:20.961Z,18.28
2023-04-21T11:25:23.852Z,18.33
2023-04-21T11:30:36.589Z,18.31
2023-04-21T11:35:41.068Z,18.39
2023-04-21T11:40:52.184Z,18.41
2023-04-21T11:45:55.267Z,18.45
2023-04-21T11:50:58.037Z,18.67
2023-04-21T11:56:01.340Z,18.76
2023-04-21T12:01:10.159Z,18.81
2023-04-21T12:06:22.368Z,18.90
2023-04-21T12:11:30.594Z,19.10
2023-04-21T12:16:33.502Z,19.26
2023-04-21T12:21:39.444Z,19.30
2023-04-21T12:26:42.154Z,19.35
2023-04-21T12:31:45.082Z,19.49
2023-04-21T12:36:47.956Z,19.63
2023-04-21T12:41:51.284Z,19.63
2023-04-21T12:46:54.121Z,19.74
2023-04-21T12:51:56.828Z,19.86
2023-04-21T12:56:59.738Z,20.03
2023-04-21T13:02:02.620Z,20.12
2023-04-21T13:07:05.858Z,20.00
2023-04-21T13:12:08.623Z,19.89
2023-04-21T13:17:11.797Z,19.86
2023-04-21T13:22:14.649Z,19.96
2023-04-21T13:27:17.446Z,20.06
2023-04-21T13:32:20.324Z,20.16
2023-04-21T13:37:23.168Z,20.18
2023-04-21T13:42:25.936Z,20.20
2023-04-21T13:47:33.256Z,20.37
2023-04-21T13:52:36.717Z,20.64
2023-04-21T13:57:39.509Z,20.83
2023-04-21T14:02:42.687Z,21.04
2023-04-21T14:07:45.779Z,21.15
2023-04-21T14:12:49.214Z,21.38
2023-04-21T14:17:53.013Z,21.66
2023-04-21T14:22:55.912Z,21.99
2023-04-21T14:27:59.742Z,22.26
2023-04-21T14:33:03.425Z,22.61
2023-04-21T14:38:06.273Z,22.84
2023-04-21T14:43:11.492Z,22.81
2023-04-21T14:48:14.607Z,22.70
2023-04-21T14:53:17.496Z,22.63
2023-04-21T14:58:20.273Z,22.62
2023-04-21T15:03:23.340Z,22.31
2023-04-21T15:08:27.705Z,21.92
2023-04-21T15:13:31.140Z,21.58
2023-04-21T15:18:33.869Z,21.52
2023-04-21T15:23:36.661Z,21.53
2023-04-21T15:28:39.935Z,21.40
2023-04-21T15:33:42.823Z,20.99
2023-04-21T15:38:45.723Z,20.58
2023-04-21T15:43:48.649Z,20.56
2023-04-21T15:48:51.375Z,21.13
2023-04-21T15:53:54.077Z,22.01
2023-04-21T15:58:57.270Z,22.71
2023-04-21T16:04:00.280Z,23.40
2023-04-21T16:09:03.439Z,23.69
2023-04-21T16:14:06.307Z,23.60
2023-04-21T16:19:09.627Z,23.36
2023-04-21T16:24:12.558Z,23.05
2023-04-21T16:29:15.539Z,23.18
2023-04-21T16:34:18.296Z,23.22
2023-04-21T16:39:21.003Z,22.96
2023-04-21T16:44:23.717Z,22.64
2023-04-21T16:49:26.627Z,22.18
2023-04-21T16:54:29.375Z,21.67
2023-04-21T16:59:33.065Z,21.17
2023-04-21T17:04:37.863Z,20.86
2023-04-21T17:09:41.218Z,20.73
2023-04-21T17:14:43.955Z,20.60
2023-04-21T17:19:46.696Z,20.21
2023-04-21T17:24:53.596Z,19.24
2023-04-21T17:29:57.096Z,18.19
2023-04-21T17:34:59.835Z,17.26
2023-04-21T17:40:03.316Z,16.49
2023-04-21T17:45:07.713Z,15.85
2023-04-21T17:50:12.907Z,15.32
2023-04-21T17:55:15.996Z,14.87
2023-04-21T18:00:19.154Z,14.47
2023-04-21T18:05:21.928Z,14.15
2023-04-21T18:10:26.441Z,13.89
2023-04-21T18:15:31.017Z,13.64
2023-04-21T18:20:33.901Z,13.38
2023-04-21T18:25:42.488Z,13.14
2023-04-21T18:30:47.425Z,12.91
2023-04-21T18:35:50.583Z,12.69
2023-04-21T18:40:53.309Z,12.48
2023-04-21T18:45:56.119Z,12.27
2023-04-21T18:50:59.535Z,12.06
2023-04-21T18:56:02.271Z,11.86
2023-04-21T19:01:04.989Z,11.65
2023-04-21T19:06:07.831Z,11.45
2023-04-21T19:11:13.455Z,11.28
2023-04-21T19:16:16.768Z,11.17
2023-04-21T19:21:19.650Z,11.07
2023-04-21T19:26:22.978Z,10.98
2023-04-21T19:31:25.940Z,10.87
2023-04-21T19:36:28.747Z,10.76
2023-04-21T19:41:31.466Z,10.70
2023-04-21T19:46:34.328Z,10.63
2023-04-21T19:51:37.300Z,10.55
2023-04-21T19:56:40.778Z,10.43
2023-04-21T20:01:43.614Z,10.29
2023-04-21T20:06:46.392Z,10.14
2023-04-21T20:11:49.535Z,10.03
2023-04-21T20:16:52.279Z,9.90
2023-04-21T20:21:54.976Z,9.79
2023-04-21T20:26:57.739Z,9.69
2023-04-21T20:32:01.174Z,9.59
2023-04-21T20:37:05.271Z,9.47
2023-04-21T20:42:13.175Z,9.30
2023-04-21T20:47:17.576Z,9.12
2023-04-21T20:52:20.620Z,8.90
2023-04-21T20:57:23.386Z,8.71
2023-04-21T21:02:26.399Z,8.55
2023-04-21T21:07:32.015Z,8.38
2023-04-21T21:12:34.706Z,8.21
2023-04-21T21:17:37.486Z,8.03
2023-04-21T21:22:40.221Z,7.84
2023-04-21T21:27:43.010Z,7.63
2023-04-21T21:32:46.682Z,7.42
2023-04-21T21:37:49.497Z,7.23
2023-04-21T21:42:52.356Z,7.06
2023-04-21T21:47:55.115Z,6.91
2023-04-21T21:52:57.809Z,6.73
2023-04-21T21:58:04.095Z,6.56
2023-04-21T22:03:06.943Z,6.39
2023-04-21T22:08:09.750Z,6.23
2023-04-21T22:13:12.512Z,6.07
2023-04-21T22:18:18.502Z,5.91
2023-04-21T22:23:21.493Z,5.78
2023-04-21T22:28:24.224Z,5.66
2023-04-21T22:33:26.966Z,5.56
2023-04-21T22:38:29.701Z,5.45
2023-04-21T22:43:32.598Z,5.35
2023-04-21T22:48:36.389Z,5.45
2023-04-21T22:53:39.152Z,9.47
2023-04-21T22:58:43.008Z,11.04
2023-04-21T23:03:46.070Z,8.97
2023-04-21T23:08:48.862Z,7.85
2023-04-21T23:13:51.557Z,7.16
2023-04-21T23:18:54.258Z,6.63
2023-04-21T23:23:57.300Z,6.13
2023-04-21T23:29:00.438Z,5.70
2023-04-21T23:34:03.144Z,5.35
2023-04-21T23:39:06.294Z,5.07
2023-04-21T23:44:09.058Z,4.82
2023-04-21T23:49:11.825Z,4.60
2023-04-21T23:54:14.697Z,4.41
2023-04-21T23:59:17.870Z,4.25
